Time;durP1;ratioP1;P1;durP2;ratioP2;P2;SDS_P1;SDS_P2;PMS_P1;PMS_P2;Temp;Humidity;BMP_temperature;BMP_pressure;BME280_temperature;BME280_humidity;BME280_pressure;Samples;Min_cycle;Max_cycle;Signal;HPM_P1;HPM_P2
2023/01/08 00:00:17;;;;;;;8.10;3.20;;;;;;;-18.52;62.66;100657.94;7349079;19;20015;-80
2023/01/08 00:02:41;;;;;;;9.55;4.18;;;;;;;-18.58;62.83;100648.31;7348008;19;20015;-73
2023/01/08 00:05:06;;;;;;;13.32;6.57;;;;;;;-18.71;63.46;100644.94;7347254;19;20469;-75
2023/01/08 00:07:31;;;;;;;8.82;2.60;;;;;;;-18.60;63.10;100654.09;7346513;19;20014;-73
2023/01/08 00:09:56;;;;;;;8.32;3.38;;;;;;;-18.67;63.05;100664.69;7342406;19;20014;-75
2023/01/08 00:12:20;;;;;;;12.40;5.75;;;;;;;-18.75;63.14;100655.72;7345417;19;20021;-73
2023/01/08 00:14:45;;;;;;;10.82;5.03;;;;;;;-18.81;63.14;100652.00;7343614;19;20044;-73
2023/01/08 00:17:09;;;;;;;11.82;5.65;;;;;;;-18.93;63.38;100658.91;7346375;19;20024;-77
2023/01/08 00:19:34;;;;;;;6.95;2.55;;;;;;;-18.76;62.95;100656.50;7343857;19;20018;-73
2023/01/08 00:21:59;;;;;;;9.30;4.88;;;;;;;-18.90;63.17;100658.22;7345624;19;20022;-74
2023/01/08 00:24:23;;;;;;;7.45;3.30;;;;;;;-18.99;63.65;100661.06;7345624;19;20029;-74
2023/01/08 00:26:48;;;;;;;9.75;5.18;;;;;;;-19.02;63.90;100662.53;7344194;19;20021;-76
2023/01/08 00:29:12;;;;;;;10.25;4.85;;;;;;;-19.00;64.07;100666.94;7345145;19;20051;-66
2023/01/08 00:31:37;;;;;;;12.52;5.15;;;;;;;-18.96;64.14;100663.81;7345011;19;20082;-66
2023/01/08 00:34:01;;;;;;;12.00;4.18;;;;;;;-18.90;63.73;100654.00;7348762;19;20014;-65
2023/01/08 00:36:26;;;;;;;2.40;1.40;;;;;;;-18.74;63.43;100667.66;7345610;19;20038;-65
2023/01/08 00:38:51;;;;;;;12.10;4.50;;;;;;;-18.72;63.68;100671.13;7343799;19;20018;-66
2023/01/08 00:41:16;;;;;;;9.25;4.13;;;;;;;-18.63;63.51;100667.53;7345211;19;20025;-65
2023/01/08 00:43:41;;;;;;;6.45;3.70;;;;;;;-18.54;63.42;100664.59;7341788;19;20097;-66
2023/01/08 00:46:07;;;;;;;11.75;4.55;;;;;;;-18.48;63.44;100665.84;7342677;19;20035;-65
2023/01/08 00:48:37;;;;;;;11.85;4.20;;;;;;;-18.40;63.25;100673.94;7340852;19;20021;-66
2023/01/08 00:51:02;;;;;;;6.22;3.42;;;;;;;-18.34;62.60;100669.19;7343120;19;20437;-74
2023/01/08 00:53:26;;;;;;;7.88;3.30;;;;;;;-18.32;62.60;100665.09;7344591;19;20407;-77
2023/01/08 00:56:01;;;;;;;9.55;4.18;;;;;;;-18.30;62.19;100666.06;7343579;19;20010;-77
2023/01/08 00:58:26;;;;;;;9.07;3.83;;;;;;;-18.36;62.12;100673.31;7342929;19;20019;-74
2023/01/08 01:00:51;;;;;;;7.30;3.88;;;;;;;-18.33;62.16;100675.16;7344049;19;20008;-71
2023/01/08 01:03:15;;;;;;;9.00;2.40;;;;;;;-18.29;62.00;100675.44;7341918;19;20330;-72
2023/01/08 01:05:40;;;;;;;10.05;5.70;;;;;;;-18.43;61.88;100683.91;7342193;19;20096;-73
2023/01/08 01:08:04;;;;;;;12.18;4.47;;;;;;;-18.48;62.12;100678.56;7343976;19;20017;-74
2023/01/08 01:10:29;;;;;;;6.53;3.08;;;;;;;-18.41;62.72;100677.28;7342672;19;20010;-75
2023/01/08 01:12:54;;;;;;;12.63;4.20;;;;;;;-18.29;62.63;100678.00;7343883;19;20411;-73
2023/01/08 01:15:18;;;;;;;7.65;3.00;;;;;;;-18.24;62.22;100673.16;7345350;19;20381;-76
2023/01/08 01:17:45;;;;;;;17.98;6.65;;;;;;;-18.20;62.32;100675.97;7345056;19;20003;-75
2023/01/08 01:20:12;;;;;;;3.75;2.33;;;;;;;-18.09;62.54;100677.50;7345156;19;20014;-77
2023/01/08 01:22:37;;;;;;;8.52;4.15;;;;;;;-18.04;62.39;100691.34;7343486;19;20023;-74
2023/01/08 01:25:03;;;;;;;6.05;3.05;;;;;;;-17.94;62.06;100674.06;7342970;19;20018;-73
2023/01/08 01:27:28;;;;;;;6.70;3.72;;;;;;;-17.92;61.75;100680.09;7351545;19;20021;-74
2023/01/08 01:29:53;;;;;;;8.65;4.68;;;;;;;-17.87;61.63;100694.00;7349137;19;20022;-74
2023/01/08 01:32:18;;;;;;;4.10;1.67;;;;;;;-17.80;61.66;100666.41;7349728;19;20327;-74
2023/01/08 01:34:43;;;;;;;10.40;2.83;;;;;;;-17.73;61.56;100662.56;7348963;19;20014;-74
2023/01/08 01:37:10;;;;;;;8.05;3.42;;;;;;;-17.70;61.06;100665.25;7353128;19;20018;-74
2023/01/08 01:39:35;;;;;;;9.88;4.28;;;;;;;-17.77;60.61;100661.50;7352655;19;20163;-76
2023/01/08 01:42:00;;;;;;;9.27;4.05;;;;;;;-17.86;60.63;100670.28;7353467;19;20065;-76
2023/01/08 01:44:41;;;;;;;5.72;3.55;;;;;;;-17.80;61.22;100665.53;7355535;19;20017;-77
2023/01/08 01:47:12;;;;;;;7.38;4.00;;;;;;;-17.83;61.16;100673.03;7352533;19;20106;-66
2023/01/08 01:49:38;;;;;;;4.43;2.28;;;;;;;-17.80;60.96;100666.41;7349636;19;20019;-71
2023/01/08 01:52:06;;;;;;;7.85;3.15;;;;;;;-17.84;60.81;100668.72;7347098;19;20371;-68
2023/01/08 01:54:31;;;;;;;11.82;5.75;;;;;;;-17.90;61.16;100678.53;7349606;19;20033;-73
2023/01/08 01:56:58;;;;;;;8.65;3.78;;;;;;;-18.12;61.15;100673.88;7349174;19;20010;-69
2023/01/08 01:59:22;;;;;;;5.43;3.30;;;;;;;-18.11;61.59;100679.06;7349521;19;20118;-74
2023/01/08 02:01:48;;;;;;;5.47;3.78;;;;;;;-18.10;62.14;100675.72;7349009;19;20015;-70
2023/01/08 02:04:13;;;;;;;9.20;3.35;;;;;;;-18.07;62.70;100678.47;7348518;19;20023;-70
2023/01/08 02:07:02;;;;;;;9.32;3.13;;;;;;;-17.96;62.48;100668.03;7349423;19;20018;-69
2023/01/08 02:10:08;;;;;;;12.55;4.43;;;;;;;-17.94;62.29;100671.53;7347516;19;20086;-70
2023/01/08 02:13:05;;;;;;;6.57;3.33;;;;;;;-17.95;62.13;100675.75;7351553;19;20013;-77
2023/01/08 02:15:39;;;;;;;3.38;2.28;;;;;;;-17.87;62.43;100666.00;7350109;19;20023;-76
2023/01/08 02:18:07;;;;;;;12.10;3.83;;;;;;;-17.79;62.47;100662.19;7351849;19;20002;-77
2023/01/08 02:20:55;;;;;;;7.38;3.33;;;;;;;-17.73;62.33;100672.75;7351025;19;20416;-75
2023/01/08 02:23:54;;;;;;;6.55;3.20;;;;;;;-17.68;61.94;100672.22;7348949;19;20026;-73
2023/01/08 02:26:24;;;;;;;4.50;2.42;;;;;;;-17.63;61.99;100682.66;7349352;19;20022;-70
2023/01/08 02:28:56;;;;;;;6.65;2.70;;;;;;;-17.56;62.03;100677.06;7348221;19;20403;-74
2023/01/08 02:31:24;;;;;;;13.85;3.78;;;;;;;-17.51;62.09;100675.69;7347432;19;20026;-73
2023/01/08 02:33:49;;;;;;;9.10;3.75;;;;;;;-17.50;61.89;100677.44;7349596;19;20461;-74
2023/01/08 02:36:21;;;;;;;5.65;2.05;;;;;;;-17.40;61.69;100668.63;7349317;19;20465;-73
2023/01/08 02:39:03;;;;;;;8.00;2.45;;;;;;;-17.31;61.74;100675.09;7348770;19;20361;-72
2023/01/08 02:41:55;;;;;;;6.28;2.25;;;;;;;-17.22;61.58;100673.84;7347092;19;20021;-73
2023/01/08 02:44:31;;;;;;;8.00;2.83;;;;;;;-17.20;61.41;100668.06;7347542;19;20048;-73
2023/01/08 02:46:59;;;;;;;4.68;2.00;;;;;;;-17.12;61.37;100671.88;7349373;19;20029;-75
2023/01/08 02:49:29;;;;;;;9.15;4.38;;;;;;;-17.25;60.50;100668.56;7350213;19;20006;-75
2023/01/08 02:51:56;;;;;;;7.07;2.85;;;;;;;-17.21;60.87;100661.19;7351472;19;20045;-73
2023/01/08 02:54:28;;;;;;;3.65;1.92;;;;;;;-17.17;60.79;100673.31;7355954;19;20027;-73
2023/01/08 02:57:03;;;;;;;10.05;3.95;;;;;;;-17.23;60.27;100667.00;7358475;19;20026;-75
2023/01/08 02:59:32;;;;;;;6.93;2.88;;;;;;;-17.20;60.37;100662.94;7349169;19;20003;-73
2023/01/08 03:01:58;;;;;;;7.03;3.72;;;;;;;-17.21;60.29;100658.66;7348583;19;20022;-73
2023/01/08 03:04:24;;;;;;;7.13;3.58;;;;;;;-17.36;59.75;100661.22;7348407;19;20686;-74
2023/01/08 03:06:49;;;;;;;8.45;4.63;;;;;;;-17.41;60.04;100657.56;7348546;19;20028;-72
2023/01/08 03:09:15;;;;;;;8.13;4.78;;;;;;;-17.51;60.35;100644.22;7348992;19;20015;-78
2023/01/08 03:11:50;;;;;;;8.85;4.57;;;;;;;-17.49;60.50;100647.75;7349276;19;20006;-67
2023/01/08 03:14:21;;;;;;;9.93;4.93;;;;;;;-17.52;60.81;100658.63;7347336;19;20026;-74
2023/01/08 03:16:51;;;;;;;19.08;7.95;;;;;;;-17.65;60.91;100661.31;7349942;19;20107;-73
2023/01/08 03:19:20;;;;;;;9.93;5.30;;;;;;;-17.64;61.31;100673.25;7346082;19;20022;-73
2023/01/08 03:21:46;;;;;;;8.57;4.78;;;;;;;-17.73;61.49;100678.72;7347556;19;20315;-72
2023/01/08 03:24:17;;;;;;;6.07;3.55;;;;;;;-17.63;61.45;100669.94;7346185;19;20349;-74
2023/01/08 03:26:44;;;;;;;7.68;4.10;;;;;;;-17.54;61.73;100672.06;7348175;19;20017;-78
2023/01/08 03:29:12;;;;;;;9.90;3.92;;;;;;;-17.55;61.44;100676.28;7346384;19;20011;-74
2023/01/08 03:31:39;;;;;;;6.35;2.25;;;;;;;-17.42;61.55;100675.31;7349536;19;20011;-74
2023/01/08 03:34:04;;;;;;;3.88;2.28;;;;;;;-17.34;61.54;100690.22;7345306;19;20019;-73
2023/01/08 03:36:31;;;;;;;2.65;1.77;;;;;;;-17.28;61.70;100665.88;7346115;19;20015;-71
2023/01/08 03:39:05;;;;;;;3.58;2.30;;;;;;;-17.08;61.49;100676.38;7345316;19;20006;-72
2023/01/08 03:41:34;;;;;;;7.43;3.65;;;;;;;-17.04;61.06;100677.41;7346005;19;20006;-72
2023/01/08 03:43:59;;;;;;;5.65;3.58;;;;;;;-17.28;60.17;100678.63;7347699;19;20026;-71
2023/01/08 03:46:31;;;;;;;11.43;3.92;;;;;;;-17.35;60.87;100680.81;7344508;19;20030;-74
2023/01/08 03:48:58;;;;;;;8.00;4.20;;;;;;;-17.38;60.92;100680.63;7341824;19;20019;-71
2023/01/08 03:51:24;;;;;;;8.70;3.78;;;;;;;-17.42;61.54;100677.84;7343842;19;19999;-71
2023/01/08 03:53:53;;;;;;;4.65;3.08;;;;;;;-17.33;61.35;100681.78;7345293;19;20014;-70
2023/01/08 03:56:17;;;;;;;9.60;3.72;;;;;;;-17.37;61.12;100684.06;7345770;19;20018;-71
2023/01/08 03:58:42;;;;;;;7.85;2.83;;;;;;;-17.36;61.70;100690.91;7343797;19;20029;-72
2023/01/08 04:01:07;;;;;;;12.45;5.05;;;;;;;-17.37;61.63;100689.16;7343978;19;20027;-73
2023/01/08 04:03:31;;;;;;;8.75;2.63;;;;;;;-17.46;61.29;100693.75;7344618;19;20022;-73
2023/01/08 04:05:59;;;;;;;7.95;4.05;;;;;;;-17.46;61.04;100694.63;7348267;19;20327;-73
2023/01/08 04:08:24;;;;;;;13.32;5.05;;;;;;;-17.54;61.30;100698.44;7350348;19;20026;-74
2023/01/08 04:10:48;;;;;;;7.25;4.30;;;;;;;-17.55;61.52;100688.16;7342933;19;20015;-73
2023/01/08 04:13:13;;;;;;;6.05;3.85;;;;;;;-17.64;62.06;100688.53;7344930;19;20018;-71
2023/01/08 04:15:37;;;;;;;9.82;4.50;;;;;;;-17.59;61.71;100682.00;7344819;19;20034;-71
2023/01/08 04:18:02;;;;;;;10.05;5.10;;;;;;;-17.60;62.55;100687.88;7345641;19;20480;-70
2023/01/08 04:20:26;;;;;;;8.68;4.20;;;;;;;-17.64;62.32;100682.56;7346450;19;20014;-76
2023/01/08 04:22:51;;;;;;;6.65;3.60;;;;;;;-17.55;62.36;100680.50;7350946;19;20014;-76
2023/01/08 04:25:16;;;;;;;6.93;3.10;;;;;;;-17.46;62.21;100673.38;7347575;19;20014;-75
2023/01/08 04:27:40;;;;;;;3.05;2.08;;;;;;;-17.31;61.96;100667.47;7346185;19;20014;-73
2023/01/08 04:30:05;;;;;;;5.72;2.47;;;;;;;-17.21;61.54;100670.50;7341936;19;20495;-73
2023/01/08 04:32:30;;;;;;;4.72;3.13;;;;;;;-17.28;61.25;100671.84;7343592;19;20361;-72
2023/01/08 04:34:55;;;;;;;13.93;5.25;;;;;;;-17.38;61.36;100670.44;7341772;19;20326;-71
2023/01/08 04:37:20;;;;;;;3.05;2.10;;;;;;;-17.25;61.21;100677.09;7343330;19;20018;-71
2023/01/08 04:39:44;;;;;;;5.50;3.20;;;;;;;-17.40;61.56;100672.06;7344454;19;20421;-71
2023/01/08 04:42:09;;;;;;;10.15;4.20;;;;;;;-17.38;61.71;100678.09;7344255;19;20012;-71
2023/01/08 04:44:33;;;;;;;12.65;5.07;;;;;;;-17.40;62.07;100666.97;7345344;19;20041;-72
2023/01/08 04:46:58;;;;;;;8.25;3.83;;;;;;;-17.47;61.94;100666.53;7342417;19;20018;-70
2023/01/08 04:49:23;;;;;;;7.97;3.60;;;;;;;-17.48;62.48;100670.72;7344814;19;20813;-72
2023/01/08 04:51:47;;;;;;;5.53;3.17;;;;;;;-17.48;62.33;100663.09;7343029;19;20110;-73
2023/01/08 04:54:13;;;;;;;5.63;2.63;;;;;;;-17.55;62.97;100666.09;7343421;19;20022;-72
2023/01/08 04:56:37;;;;;;;8.43;3.38;;;;;;;-17.56;62.50;100669.44;7346088;19;20007;-71
2023/01/08 04:59:02;;;;;;;9.73;3.88;;;;;;;-17.80;63.62;100663.88;7345077;19;20003;-72
2023/01/08 05:01:28;;;;;;;8.70;4.40;;;;;;;-17.69;63.73;100667.91;7343580;19;20012;-68
2023/01/08 05:04:03;;;;;;;4.95;2.67;;;;;;;-17.55;63.99;100665.22;7343548;19;20461;-71
2023/01/08 05:06:29;;;;;;;3.80;2.55;;;;;;;-17.52;63.83;100668.81;7343031;19;20015;-73
2023/01/08 05:08:54;;;;;;;9.98;5.10;;;;;;;-17.58;64.05;100671.00;7342557;19;20564;-69
2023/01/08 05:11:19;;;;;;;10.60;4.95;;;;;;;-17.72;63.95;100680.47;7341132;19;20525;-68
2023/01/08 05:13:47;;;;;;;6.30;3.30;;;;;;;-17.62;64.18;100668.25;7344917;19;20019;-69
2023/01/08 05:16:12;;;;;;;9.57;4.15;;;;;;;-17.61;64.44;100678.50;7345482;19;20022;-69
2023/01/08 05:18:36;;;;;;;11.57;5.80;;;;;;;-17.91;65.35;100674.22;7342422;19;20137;-70
2023/01/08 05:21:03;;;;;;;8.73;2.70;;;;;;;-17.83;65.29;100678.97;7343583;19;20024;-70
2023/01/08 05:23:29;;;;;;;2.78;2.05;;;;;;;-17.78;65.44;100681.78;7342284;19;20025;-69
2023/01/08 05:25:58;;;;;;;3.67;1.80;;;;;;;-17.80;65.74;100675.72;7344676;19;20483;-70
2023/01/08 05:28:23;;;;;;;13.07;6.55;;;;;;;-17.92;66.23;100683.53;7340838;19;20018;-68
2023/01/08 05:30:48;;;;;;;6.68;3.25;;;;;;;-17.90;66.22;100678.53;7342501;19;20014;-70
2023/01/08 05:33:13;;;;;;;4.03;2.63;;;;;;;-17.82;66.56;100684.94;7344863;19;20465;-68
2023/01/08 05:35:38;;;;;;;9.07;3.65;;;;;;;-17.83;66.85;100685.75;7342822;19;20465;-71
2023/01/08 05:38:03;;;;;;;3.55;1.50;;;;;;;-17.62;66.31;100681.00;7347371;19;20476;-71
2023/01/08 05:40:27;;;;;;;9.77;4.10;;;;;;;-17.56;66.60;100683.84;7343347;19;20473;-72
2023/01/08 05:42:52;;;;;;;7.13;3.45;;;;;;;-17.48;66.36;100686.03;7344737;19;20019;-71
2023/01/08 05:45:17;;;;;;;2.03;0.85;;;;;;;-17.37;66.21;100672.22;7342318;19;20389;-72
2023/01/08 05:47:42;;;;;;;4.07;2.28;;;;;;;-17.21;65.99;100675.59;7344411;19;20875;-74
2023/01/08 05:50:07;;;;;;;5.05;1.60;;;;;;;-17.06;65.81;100684.09;7343946;19;20007;-73
2023/01/08 05:52:31;;;;;;;3.05;1.75;;;;;;;-16.93;65.31;100682.28;7342877;19;20022;-74
2023/01/08 05:54:56;;;;;;;15.00;4.43;;;;;;;-16.91;65.58;100672.16;7343192;19;20010;-74
2023/01/08 05:57:20;;;;;;;7.10;3.90;;;;;;;-16.90;65.71;100662.84;7344977;19;20023;-72
2023/01/08 05:59:45;;;;;;;6.35;3.92;;;;;;;-16.80;65.30;100673.59;7343854;19;20022;-73
2023/01/08 06:02:10;;;;;;;4.18;2.67;;;;;;;-16.77;65.28;100671.22;7347929;19;20127;-74
2023/01/08 06:04:34;;;;;;;11.10;3.10;;;;;;;-16.70;65.01;100672.44;7349386;19;20093;-73
2023/01/08 06:06:59;;;;;;;6.10;3.78;;;;;;;-16.73;65.21;100662.94;7344817;19;20369;-72
2023/01/08 06:09:24;;;;;;;6.88;3.28;;;;;;;-16.66;65.40;100667.56;7342058;19;20025;-73
2023/01/08 06:11:48;;;;;;;8.05;4.15;;;;;;;-16.65;65.37;100669.31;7343093;19;20014;-75
2023/01/08 06:14:14;;;;;;;8.15;4.75;;;;;;;-16.69;64.98;100661.41;7351074;19;20010;-75
2023/01/08 06:16:39;;;;;;;10.13;3.38;;;;;;;-16.78;64.57;100669.47;7351491;19;20022;-75
2023/01/08 06:19:04;;;;;;;6.93;2.97;;;;;;;-16.66;64.65;100669.25;7351031;19;20018;-75
2023/01/08 06:21:28;;;;;;;4.07;2.42;;;;;;;-16.61;64.42;100670.34;7347524;19;20011;-75
2023/01/08 06:23:53;;;;;;;7.80;3.53;;;;;;;-16.53;64.48;100668.19;7348476;19;20651;-75
2023/01/08 06:26:17;;;;;;;10.55;3.50;;;;;;;-16.47;64.16;100669.34;7351527;19;20057;-75
2023/01/08 06:28:42;;;;;;;7.28;3.05;;;;;;;-16.38;63.94;100671.53;7350471;19;20014;-74
2023/01/08 06:31:06;;;;;;;5.45;2.80;;;;;;;-16.27;63.81;100676.41;7349367;19;20078;-73
2023/01/08 06:33:31;;;;;;;11.75;4.30;;;;;;;-16.23;63.62;100680.84;7350603;19;20038;-74
2023/01/08 06:36:01;;;;;;;9.25;3.88;;;;;;;-16.13;63.29;100689.84;7351038;19;20119;-74
2023/01/08 06:38:25;;;;;;;6.28;3.78;;;;;;;-16.16;62.34;100689.72;7349811;19;20021;-72
2023/01/08 06:40:50;;;;;;;8.40;4.03;;;;;;;-16.30;61.83;100685.56;7350717;19;20070;-71
2023/01/08 06:43:15;;;;;;;7.18;3.72;;;;;;;-16.45;62.17;100679.66;7352504;19;20021;-71
2023/01/08 06:45:39;;;;;;;11.05;4.07;;;;;;;-16.35;62.53;100681.88;7348772;19;20014;-76
2023/01/08 06:48:06;;;;;;;7.45;3.15;;;;;;;-16.17;62.38;100687.06;7350882;19;20010;-74
2023/01/08 06:50:31;;;;;;;5.05;3.25;;;;;;;-16.22;61.74;100685.16;7349829;19;20014;-74
2023/01/08 06:52:56;;;;;;;13.25;4.20;;;;;;;-16.29;61.39;100692.44;7350206;19;20117;-73
2023/01/08 06:55:23;;;;;;;10.13;7.05;;;;;;;-16.39;61.32;100682.53;7351828;19;20015;-75
2023/01/08 06:57:51;;;;;;;13.00;5.97;;;;;;;-16.52;61.23;100698.00;7349319;19;20015;-74
2023/01/08 07:00:16;;;;;;;14.98;5.55;;;;;;;-16.66;61.66;100695.63;7349788;19;20017;-74
2023/01/08 07:02:41;;;;;;;11.95;4.80;;;;;;;-16.78;61.77;100700.06;7347549;19;20090;-70
2023/01/08 07:05:06;;;;;;;10.18;5.43;;;;;;;-16.91;61.87;100705.31;7345833;19;20454;-72
2023/01/08 07:07:30;;;;;;;13.32;5.53;;;;;;;-16.88;62.30;100709.69;7349931;19;20112;-70
2023/01/08 07:09:55;;;;;;;7.10;4.72;;;;;;;-16.80;62.48;100709.31;7344678;19;20472;-71
2023/01/08 07:12:19;;;;;;;10.98;4.95;;;;;;;-17.01;62.24;100708.16;7348394;19;20002;-70
2023/01/08 07:14:44;;;;;;;6.85;3.90;;;;;;;-16.73;62.76;100708.88;7344943;19;20024;-70
2023/01/08 07:17:09;;;;;;;8.85;4.47;;;;;;;-16.60;62.23;100700.16;7345674;19;20014;-72
2023/01/08 07:19:33;;;;;;;7.63;4.03;;;;;;;-16.34;62.30;100691.28;7349350;19;20018;-71
2023/01/08 07:21:58;;;;;;;6.45;3.67;;;;;;;-16.09;60.88;100701.97;7348265;19;20015;-71
2023/01/08 07:24:23;;;;;;;9.90;4.80;;;;;;;-16.07;60.42;100702.06;7346190;19;20162;-69
2023/01/08 07:26:47;;;;;;;8.85;5.10;;;;;;;-15.96;60.07;100701.81;7344846;19;20014;-70
2023/01/08 07:29:12;;;;;;;9.23;5.53;;;;;;;-15.83;59.71;100700.75;7345599;19;20022;-71
2023/01/08 07:31:37;;;;;;;11.02;5.43;;;;;;;-15.72;59.48;100711.50;7344290;19;20018;-71
2023/01/08 07:34:01;;;;;;;5.95;2.70;;;;;;;-15.60;59.32;100709.53;7345218;19;20070;-71
2023/01/08 07:36:26;;;;;;;12.13;3.78;;;;;;;-15.52;59.53;100716.75;7346686;19;20028;-71
2023/01/08 07:38:51;;;;;;;5.60;3.85;;;;;;;-15.43;59.42;100713.75;7344701;19;20038;-71
2023/01/08 07:41:16;;;;;;;11.07;4.07;;;;;;;-15.26;59.79;100729.94;7346708;19;20014;-71
2023/01/08 07:43:41;;;;;;;9.50;3.38;;;;;;;-15.05;59.77;100724.97;7346467;19;20018;-71
2023/01/08 07:46:05;;;;;;;8.60;3.78;;;;;;;-14.92;59.54;100733.28;7347233;19;20036;-72
2023/01/08 07:48:30;;;;;;;6.65;3.35;;;;;;;-14.79;58.79;100737.31;7350269;19;20357;-71
2023/01/08 07:51:00;;;;;;;9.65;4.63;;;;;;;-14.66;58.44;100736.16;7351260;19;20434;-70
2023/01/08 07:53:24;;;;;;;9.15;3.63;;;;;;;-14.80;56.89;100731.31;7352385;19;20036;-69
2023/01/08 07:55:49;;;;;;;9.43;4.15;;;;;;;-14.97;56.91;100731.31;7353837;19;20520;-70
2023/01/08 07:58:14;;;;;;;12.90;4.80;;;;;;;-14.85;57.57;100732.75;7344181;19;20021;-70
2023/01/08 08:00:39;;;;;;;4.15;2.47;;;;;;;-14.53;57.94;100761.50;7345990;19;20003;-71
2023/01/08 08:03:10;;;;;;;14.77;5.72;;;;;;;-14.24;57.06;100715.03;7347269;19;20022;-70
2023/01/08 08:05:34;;;;;;;5.82;3.22;;;;;;;-13.99;56.48;100722.09;7350586;19;20014;-70
2023/01/08 08:08:00;;;;;;;12.27;5.97;;;;;;;-13.55;56.57;100716.31;7348956;19;20026;-71
2023/01/08 08:10:25;;;;;;;5.60;3.40;;;;;;;-13.12;56.08;100712.88;7345261;19;20018;-70
2023/01/08 08:12:49;;;;;;;9.55;4.75;;;;;;;-12.88;53.99;100708.72;7347461;19;20099;-70
2023/01/08 08:15:16;;;;;;;14.88;5.88;;;;;;;-13.10;52.46;100714.69;7346287;19;20082;-70
2023/01/08 08:17:46;;;;;;;9.80;4.25;;;;;;;-13.45;53.24;100703.06;7344643;19;20014;-69
2023/01/08 08:20:11;;;;;;;12.38;4.68;;;;;;;-13.21;54.82;100710.00;7344523;19;20019;-69
2023/01/08 08:22:35;;;;;;;6.38;3.08;;;;;;;-12.09;56.86;100695.41;7344785;19;20017;-69
2023/01/08 08:25:00;;;;;;;9.13;4.20;;;;;;;-10.45;57.05;100691.28;7342847;19;20018;-69
2023/01/08 08:27:25;;;;;;;7.85;3.47;;;;;;;-8.85;53.06;100690.31;7344524;19;20093;-69
2023/01/08 08:29:49;;;;;;;8.95;5.03;;;;;;;-7.94;45.47;100678.41;7344919;19;20025;-69
2023/01/08 08:32:14;;;;;;;9.60;4.22;;;;;;;-7.48;45.50;100678.41;7343096;19;20025;-69
2023/01/08 08:34:39;;;;;;;9.38;4.32;;;;;;;-7.73;42.32;100684.00;7343362;19;20369;-69
2023/01/08 08:37:04;;;;;;;12.80;5.00;;;;;;;-8.46;42.28;100688.59;7343025;19;20048;-69
2023/01/08 08:39:29;;;;;;;8.13;3.53;;;;;;;-9.08;45.14;100688.88;7345024;19;20422;-70
2023/01/08 08:41:54;;;;;;;10.02;4.13;;;;;;;-9.65;44.85;100684.00;7342086;19;20406;-70
2023/01/08 08:44:19;;;;;;;6.32;3.53;;;;;;;-10.16;45.89;100688.66;7344712;19;20111;-68
2023/01/08 08:46:43;;;;;;;6.05;3.90;;;;;;;-10.53;47.87;100679.03;7346188;19;20453;-71
2023/01/08 08:49:09;;;;;;;9.65;4.57;;;;;;;-10.70;49.29;100679.38;7342388;19;20018;-71
2023/01/08 08:51:34;;;;;;;8.32;3.95;;;;;;;-10.63;49.32;100687.31;7343432;19;20070;-71
2023/01/08 08:53:59;;;;;;;11.40;4.88;;;;;;;-10.50;48.69;100682.56;7344449;19;20015;-70
2023/01/08 08:56:28;;;;;;;12.35;4.60;;;;;;;-10.23;48.39;100677.31;7343912;19;20082;-71
2023/01/08 08:58:54;;;;;;;10.15;3.63;;;;;;;-9.73;48.28;100667.47;7344297;19;20017;-71
2023/01/08 09:01:19;;;;;;;9.85;4.63;;;;;;;-9.35;46.38;100658.97;7342990;19;20594;-71
2023/01/08 09:03:45;;;;;;;11.90;5.07;;;;;;;-9.06;46.02;100657.09;7342891;19;20029;-71
2023/01/08 09:06:14;;;;;;;6.13;3.15;;;;;;;-8.79;45.68;100659.41;7340816;19;20091;-70
2023/01/08 09:08:40;;;;;;;7.63;4.47;;;;;;;-8.67;44.98;100666.56;7341553;19;20047;-71
2023/01/08 09:11:07;;;;;;;7.80;4.78;;;;;;;-8.76;45.18;100656.91;7345576;19;20011;-71
2023/01/08 09:13:35;;;;;;;8.40;4.55;;;;;;;-9.09;44.73;100661.31;7344525;19;20028;-72
2023/01/08 09:16:00;;;;;;;10.85;4.28;;;;;;;-8.99;45.70;100664.13;7349428;19;20085;-72
2023/01/08 09:18:26;;;;;;;15.90;4.90;;;;;;;-8.80;46.37;100666.28;7344587;19;20026;-71
2023/01/08 09:20:52;;;;;;;9.88;5.03;;;;;;;-8.35;45.87;100670.72;7343766;19;20528;-71
2023/01/08 09:23:18;;;;;;;10.98;5.22;;;;;;;-8.11;44.65;100678.06;7342944;19;20334;-72
2023/01/08 09:25:44;;;;;;;8.88;4.07;;;;;;;-7.74;43.79;100677.94;7342398;19;20384;-72
2023/01/08 09:28:11;;;;;;;5.70;3.10;;;;;;;-7.72;43.47;100671.06;7344518;19;20014;-71
2023/01/08 09:30:37;;;;;;;8.27;4.20;;;;;;;-7.84;43.50;100670.84;7341446;19;20018;-72
2023/01/08 09:33:04;;;;;;;6.50;3.63;;;;;;;-8.11;43.88;100675.47;7344287;19;20011;-71
2023/01/08 09:35:31;;;;;;;3.95;3.05;;;;;;;-8.37;45.60;100680.16;7342793;19;20015;-71
2023/01/08 09:37:57;;;;;;;7.10;3.67;;;;;;;-8.67;45.84;100666.56;7342771;19;20020;-71
2023/01/08 09:40:31;;;;;;;4.53;3.28;;;;;;;-8.60;46.43;100668.47;7340946;19;20469;-72
2023/01/08 09:43:00;;;;;;;6.13;3.65;;;;;;;-8.31;47.09;100654.38;7342246;19;20014;-72
2023/01/08 09:45:35;;;;;;;10.15;3.83;;;;;;;-8.08;45.23;100647.97;7341600;19;20006;-71
2023/01/08 09:48:11;;;;;;;4.20;2.05;;;;;;;-8.02;44.78;100654.97;7350843;19;20020;-76
2023/01/08 09:50:37;;;;;;;8.57;4.53;;;;;;;-8.49;44.54;100659.22;7349411;19;20042;-72
2023/01/08 09:53:04;;;;;;;10.35;5.07;;;;;;;-8.93;44.64;100660.84;7349000;19;20441;-71
2023/01/08 09:55:32;;;;;;;8.93;3.85;;;;;;;-9.18;46.66;100660.25;7351281;19;20525;-73
2023/01/08 09:57:59;;;;;;;7.30;4.35;;;;;;;-9.49;46.45;100655.19;7349978;19;20537;-70
2023/01/08 10:00:28;;;;;;;13.18;5.93;;;;;;;-9.90;46.32;100656.69;7349571;19;20025;-71
2023/01/08 10:02:56;;;;;;;7.80;3.90;;;;;;;-10.09;47.55;100657.91;7348773;19;20014;-69
2023/01/08 10:05:22;;;;;;;11.02;5.20;;;;;;;-10.59;47.72;100655.63;7349039;19;20073;-70
2023/01/08 10:07:47;;;;;;;7.55;4.20;;;;;;;-11.24;48.83;100668.25;7350556;19;20366;-70
2023/01/08 10:10:16;;;;;;;22.10;5.35;;;;;;;-11.38;50.01;100657.50;7351861;19;20553;-70
2023/01/08 10:12:44;;;;;;;8.82;3.63;;;;;;;-11.46;50.78;100653.81;7353202;19;20006;-70
2023/01/08 10:15:15;;;;;;;11.82;6.32;;;;;;;-11.45;51.11;100676.16;7349703;19;20011;-70
2023/01/08 10:18:04;;;;;;;9.63;5.32;;;;;;;-11.60;50.85;100667.06;7350386;19;20047;-71
2023/01/08 10:20:33;;;;;;;10.93;5.30;;;;;;;-11.96;51.76;100662.44;7348921;19;20030;-70
2023/01/08 10:23:15;;;;;;;8.80;3.67;;;;;;;-11.91;52.74;100660.91;7354203;19;20011;-71
2023/01/08 10:25:55;;;;;;;9.07;5.38;;;;;;;-11.96;52.93;100675.28;7355174;19;20031;-70
2023/01/08 10:28:30;;;;;;;11.35;5.70;;;;;;;-12.11;53.09;100667.06;7356271;19;20007;-72
2023/01/08 10:31:05;;;;;;;14.98;6.85;;;;;;;-12.18;53.94;100665.09;7353957;19;20010;-72
2023/01/08 10:33:43;;;;;;;5.65;3.92;;;;;;;-12.16;54.18;100669.47;7352025;19;20003;-72
2023/01/08 10:36:13;;;;;;;7.03;4.05;;;;;;;-12.07;54.18;100676.63;7353752;19;20476;-71
2023/01/08 10:38:50;;;;;;;9.88;6.03;;;;;;;-12.15;54.03;100670.34;7349026;19;20014;-72
2023/01/08 10:41:17;;;;;;;8.95;5.30;;;;;;;-12.14;54.25;100661.81;7347819;19;20022;-72
2023/01/08 10:43:56;;;;;;;7.75;3.50;;;;;;;-12.02;54.23;100666.50;7347139;19;20033;-72
2023/01/08 10:46:30;;;;;;;14.18;4.38;;;;;;;-12.05;54.37;100666.41;7349712;19;20484;-74
2023/01/08 10:49:01;;;;;;;11.63;5.25;;;;;;;-12.11;54.98;100667.06;7352887;19;20487;-74
2023/01/08 10:51:29;;;;;;;14.82;7.63;;;;;;;-12.07;55.15;100665.50;7350038;19;20021;-74
2023/01/08 10:53:59;;;;;;;16.33;6.22;;;;;;;-12.17;54.91;100661.69;7348659;19;20350;-72
2023/01/08 10:56:30;;;;;;;12.35;5.10;;;;;;;-12.41;55.86;100671.97;7346655;19;20369;-71
2023/01/08 10:58:57;;;;;;;15.60;7.60;;;;;;;-12.64;56.88;100670.28;7345416;19;20002;-71
2023/01/08 11:01:28;;;;;;;9.18;4.30;;;;;;;-12.71;57.25;100670.84;7345805;19;20022;-70
2023/01/08 11:04:05;;;;;;;7.07;3.55;;;;;;;-12.58;57.57;100663.66;7347566;19;20033;-70
2023/01/08 11:06:41;;;;;;;7.05;3.85;;;;;;;-12.46;57.60;100670.94;7346363;19;20037;-70
2023/01/08 11:09:21;;;;;;;10.60;3.90;;;;;;;-12.24;57.30;100678.59;7346744;19;20010;-71
2023/01/08 11:11:49;;;;;;;11.32;5.32;;;;;;;-12.19;56.90;100676.22;7348119;19;20024;-71
2023/01/08 11:14:22;;;;;;;12.10;5.60;;;;;;;-12.08;56.83;100674.91;7346755;19;20020;-74
2023/01/08 11:16:47;;;;;;;11.80;4.45;;;;;;;-11.95;56.53;100674.47;7348681;19;20031;-74